createdAt,value
2022-09-11T00:01:37.492Z,11.70
2022-09-11T00:06:44.211Z,11.70
2022-09-11T00:11:50.921Z,11.50
2022-09-11T00:16:57.646Z,11.50
2022-09-11T00:22:04.340Z,11.60
2022-09-11T00:27:11.019Z,11.70
2022-09-11T00:32:17.735Z,11.80
2022-09-11T00:37:24.453Z,11.80
2022-09-11T00:42:31.194Z,11.80
2022-09-11T00:47:39.326Z,11.80
2022-09-11T00:52:59.385Z,11.50
2022-09-11T00:58:13.572Z,11.20
2022-09-11T01:03:20.593Z,11.30
2022-09-11T01:08:29.940Z,11.50
2022-09-11T01:13:56.370Z,11.30
2022-09-11T01:19:46.565Z,11.30
2022-09-11T01:25:16.152Z,11.50
2022-09-11T01:30:26.533Z,11.60
2022-09-11T01:35:46.531Z,11.50
2022-09-11T01:40:58.959Z,11.50
2022-09-11T01:46:08.573Z,11.60
2022-09-11T01:51:19.773Z,11.50
2022-09-11T01:56:34.472Z,11.50
2022-09-11T02:01:45.809Z,11.60
2022-09-11T02:07:27.195Z,11.60
2022-09-11T02:12:47.511Z,11.70
2022-09-11T02:18:07.505Z,11.50
2022-09-11T02:23:15.700Z,11.50
2022-09-11T02:28:22.344Z,11.60
2022-09-11T02:33:36.304Z,11.70
2022-09-11T02:38:46.474Z,11.80
2022-09-11T02:44:35.264Z,11.90
2022-09-11T02:49:50.072Z,12.00
2022-09-11T02:55:23.767Z,12.00
2022-09-11T03:00:43.892Z,12.00
2022-09-11T03:05:50.551Z,12.20
2022-09-11T03:10:58.357Z,12.30
2022-09-11T03:16:08.201Z,12.20
2022-09-11T03:21:14.864Z,12.30
2022-09-11T03:26:21.514Z,12.20
2022-09-11T03:31:28.842Z,12.10
2022-09-11T03:36:35.569Z,12.30
2022-09-11T03:41:43.259Z,12.30
2022-09-11T03:46:49.982Z,12.30
2022-09-11T03:51:57.564Z,12.40
2022-09-11T03:57:04.223Z,12.40
2022-09-11T04:02:10.877Z,12.20
2022-09-11T04:07:17.615Z,12.40
2022-09-11T04:12:24.320Z,12.40
2022-09-11T04:17:32.527Z,12.40
2022-09-11T04:22:39.520Z,12.20
2022-09-11T04:27:46.208Z,12.10
2022-09-11T04:32:52.906Z,12.00
2022-09-11T04:37:59.739Z,12.10
2022-09-11T04:43:06.776Z,12.00
2022-09-11T04:48:13.467Z,12.00
2022-09-11T04:53:20.148Z,12.10
2022-09-11T04:58:26.849Z,12.10
2022-09-11T05:03:33.590Z,12.20
2022-09-11T05:08:40.827Z,12.10
2022-09-11T05:13:47.609Z,12.00
2022-09-11T05:18:55.644Z,12.10
2022-09-11T05:24:04.810Z,12.10
2022-09-11T05:29:15.908Z,12.30
2022-09-11T05:34:22.580Z,12.40
2022-09-11T05:39:29.308Z,12.40
2022-09-11T05:44:37.681Z,12.30
2022-09-11T05:49:44.390Z,12.20
2022-09-11T05:54:52.066Z,12.20
2022-09-11T05:59:59.274Z,12.30
2022-09-11T06:05:06.169Z,12.40
2022-09-11T06:10:12.879Z,12.40
2022-09-11T06:15:42.906Z,12.50
2022-09-11T06:20:27.941Z,12.80
2022-09-11T06:25:36.209Z,13.00
2022-09-11T06:30:44.379Z,13.10
2022-09-11T06:36:07.114Z,13.30
2022-09-11T06:41:17.286Z,13.40
2022-09-11T06:46:26.492Z,13.10
2022-09-11T06:51:34.492Z,13.20
2022-09-11T06:56:41.448Z,13.10
2022-09-11T07:01:48.819Z,13.30
2022-09-11T07:06:57.427Z,13.60
2022-09-11T07:12:04.649Z,13.90
2022-09-11T07:17:11.261Z,14.00
2022-09-11T07:22:17.938Z,14.40
2022-09-11T07:27:24.830Z,14.80
2022-09-11T07:32:31.428Z,14.80
2022-09-11T07:37:38.631Z,14.70
2022-09-11T07:42:45.573Z,14.90
2022-09-11T07:47:52.500Z,14.80
2022-09-11T07:52:59.217Z,14.60
2022-09-11T07:58:05.921Z,14.60
2022-09-11T08:03:13.075Z,14.90
2022-09-11T08:08:21.220Z,15.00
2022-09-11T08:13:27.917Z,15.00
2022-09-11T08:18:38.224Z,15.10
2022-09-11T08:23:46.731Z,15.30
2022-09-11T08:28:57.119Z,15.80
2022-09-11T08:34:03.787Z,16.10
2022-09-11T08:39:11.362Z,16.20
2022-09-11T08:44:37.254Z,16.00
2022-09-11T08:49:45.030Z,16.00
2022-09-11T08:54:51.709Z,16.00
2022-09-11T09:00:25.435Z,15.90
2022-09-11T09:05:54.589Z,16.00
2022-09-11T09:11:18.259Z,16.50
2022-09-11T09:16:54.222Z,17.40
2022-09-11T09:22:26.709Z,17.30
2022-09-11T09:27:41.552Z,17.70
2022-09-11T09:33:04.899Z,17.70
2022-09-11T09:38:21.806Z,17.60
2022-09-11T09:43:54.731Z,17.60
2022-09-11T09:49:02.378Z,17.50
2022-09-11T09:54:13.714Z,17.40
2022-09-11T09:59:30.293Z,17.40
2022-09-11T10:04:36.999Z,17.50
2022-09-11T10:09:55.589Z,17.50
2022-09-11T10:15:05.002Z,17.90
2022-09-11T10:20:26.611Z,18.20
2022-09-11T10:25:36.299Z,18.60
2022-09-11T10:30:50.580Z,18.20
2022-09-11T10:36:00.684Z,17.90
2022-09-11T10:41:21.984Z,17.60
2022-09-11T10:46:47.338Z,17.30
2022-09-11T10:52:05.409Z,16.90
2022-09-11T10:57:16.799Z,16.90
2022-09-11T11:02:36.888Z,17.00
2022-09-11T11:08:07.960Z,17.00
2022-09-11T11:13:29.355Z,17.00
2022-09-11T11:18:49.203Z,17.60
2022-09-11T11:24:16.973Z,18.20
2022-09-11T11:29:31.076Z,18.60
2022-09-11T11:35:21.038Z,18.50
2022-09-11T11:40:47.589Z,18.00
2022-09-11T11:46:00.669Z,17.70
2022-09-11T11:51:14.991Z,17.20
2022-09-11T11:56:52.359Z,16.90
2022-09-11T12:02:06.627Z,16.60
2022-09-11T12:07:31.820Z,16.30
2022-09-11T12:12:52.109Z,16.30
2022-09-11T12:18:06.025Z,16.40
2022-09-11T12:23:36.267Z,16.70
2022-09-11T12:28:44.758Z,16.70
2022-09-11T12:33:55.138Z,17.00
2022-09-11T12:39:23.832Z,17.20
2022-09-11T12:44:36.082Z,17.30
2022-09-11T12:49:45.707Z,17.30
2022-09-11T12:54:54.804Z,17.40
2022-09-11T13:00:06.211Z,17.50
2022-09-11T13:05:39.353Z,17.60
2022-09-11T13:10:47.630Z,18.00
2022-09-11T13:15:55.932Z,18.70
2022-09-11T13:21:13.209Z,18.60
2022-09-11T13:26:27.158Z,18.50
2022-09-11T13:31:39.815Z,18.10
2022-09-11T13:36:48.269Z,17.90
2022-09-11T13:41:59.854Z,17.80
2022-09-11T13:47:07.842Z,17.90
2022-09-11T13:52:15.773Z,18.00
2022-09-11T13:57:31.431Z,18.40
2022-09-11T14:02:42.408Z,18.30
2022-09-11T14:08:24.894Z,18.20
2022-09-11T14:13:45.436Z,17.90
2022-09-11T14:19:15.825Z,17.80
2022-09-11T14:24:37.647Z,17.60
2022-09-11T14:29:48.917Z,17.30
2022-09-11T14:34:55.634Z,17.10
2022-09-11T14:40:07.238Z,16.90
2022-09-11T14:45:26.522Z,16.90
2022-09-11T14:50:34.682Z,16.90
2022-09-11T14:55:41.423Z,17.20
2022-09-11T15:00:48.611Z,17.60
2022-09-11T15:05:58.878Z,17.60
2022-09-11T15:11:06.290Z,17.10
2022-09-11T15:16:14.159Z,17.30
2022-09-11T15:21:22.306Z,17.20
2022-09-11T15:26:28.994Z,17.30
2022-09-11T15:31:35.703Z,17.30
2022-09-11T15:36:43.368Z,17.00
2022-09-11T15:41:51.522Z,16.90
2022-09-11T15:47:00.406Z,16.70
2022-09-11T15:52:07.070Z,16.70
2022-09-11T15:57:13.945Z,16.80
2022-09-11T16:02:22.361Z,16.70
2022-09-11T16:07:29.026Z,16.40
2022-09-11T16:12:35.611Z,16.50
2022-09-11T16:17:42.304Z,16.20
2022-09-11T16:22:48.915Z,16.00
2022-09-11T16:28:00.459Z,16.00
2022-09-11T16:33:07.179Z,16.20
2022-09-11T16:38:15.801Z,16.00
2022-09-11T16:43:22.521Z,15.90
2022-09-11T16:48:34.266Z,15.70
2022-09-11T16:53:43.593Z,15.80
2022-09-11T16:58:51.758Z,15.70
2022-09-11T17:04:01.421Z,15.60
2022-09-11T17:09:08.693Z,15.40
2022-09-11T17:14:19.106Z,15.50
2022-09-11T17:19:25.880Z,15.30
2022-09-11T17:24:36.683Z,15.40
2022-09-11T17:29:45.287Z,15.40
2022-09-11T17:34:54.332Z,15.20
2022-09-11T17:40:02.833Z,15.10
2022-09-11T17:45:12.954Z,15.10
2022-09-11T17:50:19.803Z,15.10
2022-09-11T17:55:26.823Z,14.90
2022-09-11T18:00:34.127Z,14.90
2022-09-11T18:05:44.899Z,14.70
2022-09-11T18:11:02.054Z,14.90
2022-09-11T18:16:11.506Z,14.90
2022-09-11T18:21:17.185Z,14.80
2022-09-11T18:26:30.777Z,14.80
2022-09-11T18:31:44.935Z,14.90
2022-09-11T18:36:53.163Z,14.80
2022-09-11T18:42:00.093Z,14.80
2022-09-11T18:47:08.002Z,14.80
2022-09-11T18:52:15.879Z,14.80
2022-09-11T18:57:22.562Z,14.60
2022-09-11T19:02:29.234Z,14.60
2022-09-11T19:07:36.653Z,14.50
2022-09-11T19:12:44.337Z,14.60
2022-09-11T19:17:51.992Z,14.50
2022-09-11T19:23:02.923Z,14.70
2022-09-11T19:28:09.878Z,14.80
2022-09-11T19:33:16.597Z,14.80
2022-09-11T19:38:23.436Z,14.80
2022-09-11T19:43:36.340Z,14.60
2022-09-11T19:48:45.508Z,14.60
2022-09-11T19:53:58.146Z,14.50
2022-09-11T19:59:07.440Z,14.50
2022-09-11T20:04:16.072Z,14.60
2022-09-11T20:09:31.370Z,14.70
2022-09-11T20:14:33.975Z,14.60
2022-09-11T20:19:43.087Z,14.60
2022-09-11T20:24:50.882Z,14.40
2022-09-11T20:30:00.519Z,14.40
2022-09-11T20:35:07.929Z,14.20
2022-09-11T20:40:15.349Z,14.50
2022-09-11T20:45:23.028Z,14.40
2022-09-11T20:50:31.047Z,14.40
2022-09-11T20:55:39.530Z,14.50
2022-09-11T21:00:49.715Z,14.50
2022-09-11T21:06:00.579Z,14.40
2022-09-11T21:11:08.412Z,14.20
2022-09-11T21:16:20.527Z,14.10
2022-09-11T21:21:31.222Z,14.30
2022-09-11T21:26:38.006Z,14.30
2022-09-11T21:31:45.487Z,14.20
2022-09-11T21:36:52.380Z,14.20
2022-09-11T21:41:59.755Z,14.10
2022-09-11T21:47:07.575Z,14.00
2022-09-11T21:52:15.315Z,13.90
2022-09-11T21:57:24.486Z,13.90
2022-09-11T22:02:31.167Z,14.00
2022-09-11T22:07:41.621Z,14.00
2022-09-11T22:12:50.498Z,13.90
2022-09-11T22:17:57.227Z,13.80
2022-09-11T22:23:05.574Z,13.70
2022-09-11T22:28:12.949Z,13.60
2022-09-11T22:33:21.217Z,13.50
2022-09-11T22:38:28.487Z,13.30
2022-09-11T22:43:35.623Z,13.30
2022-09-11T22:48:43.247Z,13.10
2022-09-11T22:53:51.766Z,13.00
2022-09-11T22:58:59.290Z,13.00
2022-09-11T23:04:08.187Z,13.10
2022-09-11T23:09:20.499Z,13.00
2022-09-11T23:14:28.248Z,13.10
2022-09-11T23:19:37.026Z,13.00
2022-09-11T23:24:44.721Z,13.10
2022-09-11T23:29:53.957Z,12.90
2022-09-11T23:35:00.685Z,12.90
2022-09-11T23:40:11.253Z,13.00
2022-09-11T23:45:18.894Z,13.20
2022-09-11T23:50:25.655Z,13.00
2022-09-11T23:55:34.480Z,13.10
